createdAt,value
2023-03-16T00:01:27.275Z,50.38
2023-03-16T00:06:30.821Z,50.45
2023-03-16T00:11:34.230Z,50.67
2023-03-16T00:16:37.775Z,50.90
2023-03-16T00:21:41.209Z,50.96
2023-03-16T00:26:46.531Z,50.94
2023-03-16T00:31:49.732Z,51.04
2023-03-16T00:36:53.097Z,51.10
2023-03-16T00:41:58.542Z,51.28
2023-03-16T00:47:02.122Z,51.24
2023-03-16T00:52:07.602Z,51.40
2023-03-16T00:57:14.112Z,51.59
2023-03-16T01:02:20.180Z,51.55
2023-03-16T01:07:25.190Z,51.72
2023-03-16T01:12:28.861Z,52.35
2023-03-16T01:17:35.346Z,52.52
2023-03-16T01:22:38.890Z,52.52
2023-03-16T01:27:43.258Z,52.65
2023-03-16T01:32:46.671Z,52.97
2023-03-16T01:37:50.271Z,52.95
2023-03-16T01:43:04.612Z,53.14
2023-03-16T01:48:15.447Z,53.31
2023-03-16T01:53:21.543Z,53.52
2023-03-16T01:58:24.894Z,53.85
2023-03-16T02:03:28.574Z,53.38
2023-03-16T02:08:36.717Z,53.68
2023-03-16T02:13:40.333Z,53.79
2023-03-16T02:18:43.781Z,54.00
2023-03-16T02:23:51.032Z,54.01
2023-03-16T02:29:14.254Z,54.17
2023-03-16T02:34:18.405Z,54.35
2023-03-16T02:39:21.861Z,54.48
2023-03-16T02:44:34.049Z,54.46
2023-03-16T02:49:42.717Z,54.54
2023-03-16T02:54:46.012Z,54.72
2023-03-16T02:59:49.914Z,54.66
2023-03-16T03:04:54.690Z,54.97
2023-03-16T03:10:00.268Z,54.69
2023-03-16T03:15:06.633Z,55.12
2023-03-16T03:20:18.666Z,54.95
2023-03-16T03:25:23.020Z,54.94
2023-03-16T03:30:28.756Z,54.99
2023-03-16T03:35:34.246Z,55.04
2023-03-16T03:40:38.052Z,55.34
2023-03-16T03:45:41.324Z,55.51
2023-03-16T03:50:46.582Z,55.65
2023-03-16T03:56:13.176Z,55.45
2023-03-16T04:01:16.544Z,55.63
2023-03-16T04:06:19.924Z,55.87
2023-03-16T04:11:23.583Z,56.15
2023-03-16T04:16:28.269Z,56.55
2023-03-16T04:21:32.565Z,56.84
2023-03-16T04:26:35.954Z,56.37
2023-03-16T04:31:43.353Z,56.30
2023-03-16T04:36:46.821Z,56.68
2023-03-16T04:41:50.392Z,56.40
2023-03-16T04:46:57.486Z,56.93
2023-03-16T04:52:02.391Z,56.65
2023-03-16T04:57:06.283Z,56.77
2023-03-16T05:02:15.015Z,56.66
2023-03-16T05:07:18.804Z,57.03
2023-03-16T05:12:25.766Z,57.31
2023-03-16T05:17:32.981Z,57.21
2023-03-16T05:22:36.320Z,57.35
2023-03-16T05:27:54.190Z,57.41
2023-03-16T05:33:39.302Z,57.50
2023-03-16T05:38:46.428Z,57.86
2023-03-16T05:43:56.311Z,57.91
2023-03-16T05:49:02.421Z,58.11
2023-03-16T05:54:06.670Z,58.09
2023-03-16T05:59:18.355Z,58.28
2023-03-16T06:04:26.163Z,58.25
2023-03-16T06:09:29.911Z,58.27
2023-03-16T06:14:33.687Z,58.32
2023-03-16T06:19:37.288Z,58.42
2023-03-16T06:24:40.683Z,58.23
2023-03-16T06:29:44.356Z,58.32
2023-03-16T06:34:49.017Z,58.13
2023-03-16T06:39:52.693Z,58.07
2023-03-16T06:44:56.295Z,58.02
2023-03-16T06:49:59.990Z,58.12
2023-03-16T06:55:03.743Z,57.93
2023-03-16T07:00:09.846Z,58.32
2023-03-16T07:05:14.400Z,58.29
2023-03-16T07:10:19.630Z,57.83
2023-03-16T07:15:26.464Z,57.32
2023-03-16T07:20:33.464Z,57.84
2023-03-16T07:25:39.601Z,57.41
2023-03-16T07:30:56.628Z,57.47
2023-03-16T07:36:10.958Z,57.24
2023-03-16T07:41:18.847Z,57.12
2023-03-16T07:46:22.783Z,56.70
2023-03-16T07:51:26.236Z,56.24
2023-03-16T07:56:36.151Z,56.04
2023-03-16T08:01:56.246Z,55.35
2023-03-16T08:07:02.483Z,55.26
2023-03-16T08:12:19.132Z,54.60
2023-03-16T08:17:23.078Z,54.56
2023-03-16T08:22:27.080Z,54.40
2023-03-16T08:27:31.210Z,54.08
2023-03-16T08:32:37.635Z,53.60
2023-03-16T08:37:42.347Z,53.23
2023-03-16T08:42:46.585Z,53.40
2023-03-16T08:47:51.519Z,52.81
2023-03-16T08:52:55.033Z,52.47
2023-03-16T08:57:58.388Z,51.92
2023-03-16T09:03:02.950Z,50.89
2023-03-16T09:08:06.808Z,49.14
2023-03-16T09:13:10.669Z,49.36
2023-03-16T09:18:14.222Z,49.93
2023-03-16T09:23:19.231Z,49.84
2023-03-16T09:28:22.659Z,49.94
2023-03-16T09:33:32.245Z,49.46
2023-03-16T09:38:37.395Z,48.87
2023-03-16T09:43:49.987Z,48.18
2023-03-16T09:48:56.146Z,48.10
2023-03-16T09:54:03.075Z,46.71
2023-03-16T09:59:14.011Z,46.94
2023-03-16T10:04:26.039Z,46.71
2023-03-16T10:09:35.105Z,46.73
2023-03-16T10:14:44.842Z,46.73
2023-03-16T10:19:59.800Z,44.81
2023-03-16T10:25:32.230Z,44.83
2023-03-16T10:30:37.695Z,44.54
2023-03-16T10:36:07.439Z,41.42
2023-03-16T10:41:23.450Z,43.04
2023-03-16T10:46:29.029Z,41.59
2023-03-16T10:51:37.847Z,42.66
2023-03-16T10:56:41.577Z,40.85
2023-03-16T11:01:50.214Z,41.86
2023-03-16T11:06:57.036Z,39.78
2023-03-16T11:12:15.690Z,40.19
2023-03-16T11:17:35.426Z,40.07
2023-03-16T11:22:41.304Z,40.14
2023-03-16T11:27:49.905Z,40.34
2023-03-16T11:32:54.672Z,40.30
2023-03-16T11:38:03.997Z,40.85
2023-03-16T11:43:18.708Z,41.52
2023-03-16T11:48:36.728Z,41.53
2023-03-16T11:54:21.988Z,41.22
2023-03-16T11:59:42.329Z,41.02
2023-03-16T12:04:56.980Z,40.45
2023-03-16T12:10:14.460Z,40.95
2023-03-16T12:15:36.371Z,40.64
2023-03-16T12:21:02.996Z,39.96
2023-03-16T12:26:07.109Z,40.66
2023-03-16T12:31:35.981Z,40.62
2023-03-16T12:36:52.897Z,40.86
2023-03-16T12:42:15.181Z,41.44
2023-03-16T12:47:33.905Z,40.64
2023-03-16T12:52:46.759Z,40.22
2023-03-16T12:57:59.041Z,40.05
2023-03-16T13:03:05.595Z,40.35
2023-03-16T13:08:13.902Z,39.90
2023-03-16T13:13:18.524Z,39.09
2023-03-16T13:18:25.194Z,38.69
2023-03-16T13:23:47.312Z,37.95
2023-03-16T13:28:55.204Z,37.42
2023-03-16T13:34:01.182Z,36.71
2023-03-16T13:39:15.234Z,36.35
2023-03-16T13:44:19.133Z,34.70
2023-03-16T13:49:23.294Z,35.12
2023-03-16T13:54:30.020Z,35.65
2023-03-16T13:59:33.959Z,36.55
2023-03-16T14:04:37.626Z,35.98
2023-03-16T14:09:41.569Z,36.56
2023-03-16T14:14:55.048Z,37.61
2023-03-16T14:20:01.229Z,36.92
2023-03-16T14:25:06.449Z,37.56
2023-03-16T14:30:18.712Z,37.76
2023-03-16T14:35:22.803Z,37.80
2023-03-16T14:40:26.355Z,37.49
2023-03-16T14:45:38.049Z,37.36
2023-03-16T14:50:41.655Z,37.22
2023-03-16T14:55:45.241Z,37.48
2023-03-16T15:00:54.502Z,37.33
2023-03-16T15:05:58.085Z,37.46
2023-03-16T15:11:06.497Z,37.35
2023-03-16T15:16:12.413Z,37.62
2023-03-16T15:21:21.532Z,37.53
2023-03-16T15:26:29.858Z,37.42
2023-03-16T15:31:33.632Z,37.22
2023-03-16T15:36:37.708Z,37.34
2023-03-16T15:41:47.841Z,37.43
2023-03-16T15:46:54.112Z,37.59
2023-03-16T15:51:57.358Z,37.48
2023-03-16T15:57:01.618Z,37.66
2023-03-16T16:02:24.719Z,37.48
2023-03-16T16:07:28.294Z,37.07
2023-03-16T16:12:32.418Z,37.29
2023-03-16T16:17:50.504Z,37.80
2023-03-16T16:29:26.838Z,37.09
2023-03-16T16:34:30.249Z,38.15
2023-03-16T16:39:34.092Z,38.54
2023-03-16T16:44:38.167Z,38.56
2023-03-16T16:49:41.500Z,38.60
2023-03-16T16:54:45.265Z,38.71
2023-03-16T16:59:49.248Z,38.76
2023-03-16T17:04:53.005Z,38.81
2023-03-16T17:09:56.883Z,38.78
2023-03-16T17:15:00.830Z,38.92
2023-03-16T17:20:14.872Z,40.28
2023-03-16T17:25:19.208Z,39.42
2023-03-16T17:30:25.276Z,39.40
2023-03-16T17:35:29.428Z,39.70
2023-03-16T17:40:33.945Z,39.77
2023-03-16T17:45:37.817Z,40.13
2023-03-16T17:50:41.885Z,39.77
2023-03-16T17:55:47.026Z,39.99
2023-03-16T18:00:55.022Z,39.95
2023-03-16T18:06:01.742Z,40.27
2023-03-16T18:11:13.190Z,40.36
2023-03-16T18:16:23.382Z,40.68
2023-03-16T18:21:27.369Z,40.96
2023-03-16T18:26:32.239Z,41.50
2023-03-16T18:31:35.936Z,41.52
2023-03-16T18:36:48.449Z,41.88
2023-03-16T18:41:52.876Z,42.33
2023-03-16T18:53:22.719Z,43.03
2023-03-16T18:58:26.262Z,43.36
2023-03-16T19:03:33.753Z,43.63
2023-03-16T19:08:37.200Z,43.70
2023-03-16T19:13:40.513Z,43.94
2023-03-16T19:18:44.191Z,44.28
2023-03-16T19:23:56.616Z,44.80
2023-03-16T19:29:01.722Z,45.33
2023-03-16T19:34:17.831Z,45.60
2023-03-16T19:39:21.821Z,45.57
2023-03-16T19:44:28.509Z,45.44
2023-03-16T19:49:32.184Z,45.99
2023-03-16T19:54:35.602Z,46.36
2023-03-16T19:59:38.980Z,46.85
2023-03-16T20:04:42.819Z,47.30
2023-03-16T20:09:46.835Z,47.56
2023-03-16T20:14:51.698Z,47.88
2023-03-16T20:19:56.529Z,48.29
2023-03-16T20:25:02.559Z,48.88
2023-03-16T20:30:16.309Z,49.08
2023-03-16T20:35:23.646Z,49.58
2023-03-16T20:40:27.327Z,49.58
2023-03-16T20:45:31.141Z,49.45
2023-03-16T20:50:34.796Z,50.10
2023-03-16T20:55:38.082Z,50.14
2023-03-16T21:00:42.023Z,50.19
2023-03-16T21:05:47.949Z,49.99
2023-03-16T21:10:54.327Z,50.66
2023-03-16T21:16:00.553Z,50.33
2023-03-16T21:21:04.265Z,50.66
2023-03-16T21:26:07.585Z,51.05
2023-03-16T21:31:18.949Z,51.50
2023-03-16T21:36:26.697Z,51.67
2023-03-16T21:41:30.157Z,51.83
2023-03-16T21:46:33.949Z,52.21
2023-03-16T21:51:37.706Z,52.33
2023-03-16T21:56:42.584Z,52.27
2023-03-16T22:02:00.655Z,52.43
2023-03-16T22:07:11.317Z,52.48
2023-03-16T22:12:14.656Z,52.77
2023-03-16T22:17:22.679Z,53.10
2023-03-16T22:22:27.513Z,53.36
2023-03-16T22:27:30.797Z,53.41
2023-03-16T22:32:36.840Z,53.64
2023-03-16T22:37:40.051Z,53.64
2023-03-16T22:42:43.390Z,53.45
2023-03-16T22:47:47.948Z,53.65
2023-03-16T22:52:54.399Z,53.20
2023-03-16T22:58:36.394Z,53.48
2023-03-16T23:03:40.978Z,53.82
2023-03-16T23:08:44.676Z,54.37
2023-03-16T23:13:48.976Z,54.66
2023-03-16T23:18:52.706Z,54.42
2023-03-16T23:24:03.410Z,54.83
2023-03-16T23:29:08.179Z,54.87
2023-03-16T23:34:17.101Z,54.81
2023-03-16T23:39:20.694Z,54.87
2023-03-16T23:44:28.060Z,55.24
2023-03-16T23:49:41.561Z,54.98
2023-03-16T23:54:44.788Z,55.24
2023-03-16T23:59:48.246Z,55.49
